Time;durP1;ratioP1;P1;durP2;ratioP2;P2;SDS_P1;SDS_P2;PMS_P1;PMS_P2;Temp;Humidity;BMP_temperature;BMP_pressure;BME280_temperature;BME280_humidity;BME280_pressure;Samples;Min_cycle;Max_cycle;Signal;HPM_P1;HPM_P2
2022/05/26 00:00:30;;;;;;;2.13;2.00;;;17.70;80.90;;;;;;10429888;22;20198;-77
2022/05/26 00:05:32;;;;;;;1.97;1.80;;;17.80;80.70;;;;;;10392866;28;20288;-77
2022/05/26 00:10:35;;;;;;;1.53;1.43;;;17.90;81.30;;;;;;10388868;28;20286;-77
2022/05/26 00:15:39;;;;;;;1.60;1.40;;;17.80;81.40;;;;;;10353978;28;20895;-77
2022/05/26 00:20:41;;;;;;;1.73;1.63;;;17.80;84.20;;;;;;10351668;28;20219;-77
2022/05/26 00:25:43;;;;;;;1.47;1.47;;;17.80;81.40;;;;;;10357412;28;20223;-77
2022/05/26 00:30:48;;;;;;;1.77;1.50;;;17.80;82.60;;;;;;10351447;28;20247;-78
2022/05/26 00:35:50;;;;;;;1.60;1.50;;;17.80;80.70;;;;;;10352436;28;20221;-76
2022/05/26 00:41:00;;;;;;;1.60;1.50;;;17.80;79.10;;;;;;10352359;28;20218;-78
2022/05/26 00:46:08;;;;;;;1.50;1.40;;;17.70;78.30;;;;;;10353633;28;20196;-77
2022/05/26 00:51:12;;;;;;;1.30;1.20;;;17.80;80.60;;;;;;10368219;28;20575;-78
2022/05/26 00:56:18;;;;;;;3.03;1.30;;;17.80;79.80;;;;;;10370188;28;20304;-76
2022/05/26 01:01:23;;;;;;;1.70;1.60;;;17.80;79.80;;;;;;10362275;28;20729;-76
2022/05/26 01:06:30;;;;;;;5.33;1.70;;;17.80;80.30;;;;;;10366774;28;20614;-76
2022/05/26 01:11:36;;;;;;;5.93;1.80;;;17.80;80.10;;;;;;10364376;28;20243;-76
2022/05/26 01:16:44;;;;;;;1.80;1.40;;;17.80;79.20;;;;;;10364567;28;20233;-75
2022/05/26 01:21:54;;;;;;;1.70;1.53;;;17.70;78.80;;;;;;10362359;28;20310;-76
2022/05/26 01:27:22;;;;;;;1.73;1.60;;;17.70;79.60;;;;;;10359224;28;20202;-76
2022/05/26 01:32:30;;;;;;;1.50;1.40;;;17.70;81.50;;;;;;10363087;28;20257;-76
2022/05/26 01:37:41;;;;;;;2.03;1.90;;;17.60;82.50;;;;;;10370797;28;20202;-76
2022/05/26 01:42:56;;;;;;;1.60;1.50;;;17.50;82.80;;;;;;10373533;28;20594;-76
2022/05/26 01:48:03;;;;;;;1.50;1.40;;;17.50;82.30;;;;;;10372827;28;20252;-76
2022/05/26 01:53:17;;;;;;;2.90;1.63;;;17.40;82.50;;;;;;10375585;28;20404;-76
2022/05/26 01:58:25;;;;;;;1.40;1.30;;;17.50;81.90;;;;;;10373304;28;20203;-76
2022/05/26 02:03:33;;;;;;;1.40;1.30;;;17.40;82.90;;;;;;10369851;28;20785;-76
2022/05/26 02:08:39;;;;;;;1.40;1.30;;;17.40;83.50;;;;;;10371961;28;20195;-76
2022/05/26 02:13:46;;;;;;;1.47;1.30;;;17.30;83.10;;;;;;10372375;28;20233;-76
2022/05/26 02:18:55;;;;;;;2.13;1.80;;;17.30;82.60;;;;;;10374401;28;20233;-76
2022/05/26 02:24:04;;;;;;;2.90;1.40;;;17.40;84.10;;;;;;10365880;28;20278;-76
2022/05/26 02:34:28;;;;;;;1.93;1.60;;;17.30;81.00;;;;;;10366433;28;20226;-76
2022/05/26 02:39:30;;;;;;;2.30;1.90;;;17.30;80.70;;;;;;10373999;28;20543;-76
2022/05/26 02:44:34;;;;;;;1.50;1.40;;;17.20;82.20;;;;;;10370621;28;20218;-76
2022/05/26 02:49:58;;;;;;;1.40;1.30;;;17.10;79.90;;;;;;10369583;28;20266;-78
2022/05/26 02:55:13;;;;;;;1.80;1.60;;;17.00;81.00;;;;;;10372385;28;20615;-78
2022/05/26 03:00:17;;;;;;;1.80;1.70;;;17.00;81.80;;;;;;10374701;28;20294;-77
2022/05/26 03:05:25;;;;;;;1.80;1.70;;;16.90;81.50;;;;;;10364328;28;20206;-77
2022/05/26 03:10:30;;;;;;;1.70;1.60;;;16.90;82.30;;;;;;10368394;28;20204;-76
2022/05/26 03:15:33;;;;;;;1.40;1.30;;;16.90;83.00;;;;;;10369165;28;20223;-76
2022/05/26 03:20:37;;;;;;;1.30;1.30;;;16.90;83.20;;;;;;10370205;28;20199;-77
2022/05/26 03:25:44;;;;;;;2.10;1.90;;;16.80;83.70;;;;;;10371051;28;20721;-77
2022/05/26 03:30:46;;;;;;;1.90;1.80;;;16.80;82.60;;;;;;10372533;28;20219;-76
2022/05/26 03:41:27;;;;;;;1.87;1.50;;;16.70;83.30;;;;;;10325373;28;20235;-77
2022/05/26 03:46:29;;;;;;;1.60;1.50;;;16.60;82.00;;;;;;10357870;28;20272;-77
2022/05/26 03:51:33;;;;;;;1.80;1.80;;;16.70;84.30;;;;;;10367140;28;20230;-77
2022/05/26 03:56:35;;;;;;;2.30;2.10;;;16.70;84.20;;;;;;10365042;28;20301;-77
2022/05/26 04:01:38;;;;;;;3.00;1.80;;;16.70;83.30;;;;;;10367355;28;20259;-77
2022/05/26 04:06:41;;;;;;;6.13;1.47;;;16.60;82.10;;;;;;10368260;28;20207;-77
2022/05/26 04:11:43;;;;;;;1.33;1.23;;;16.60;82.90;;;;;;10369107;28;20227;-77
2022/05/26 04:16:45;;;;;;;1.70;1.60;;;16.60;82.90;;;;;;10373198;28;20227;-76
2022/05/26 04:27:09;;;;;;;2.60;2.10;;;16.60;82.60;;;;;;10366130;28;20205;-77
2022/05/26 04:32:11;;;;;;;2.07;1.63;;;16.60;82.20;;;;;;10348792;28;20250;-77
2022/05/26 04:37:15;;;;;;;1.87;1.77;;;16.50;82.10;;;;;;10367843;28;20218;-77
2022/05/26 04:42:18;;;;;;;1.57;1.47;;;16.60;82.80;;;;;;10369121;28;20728;-77
2022/05/26 04:47:20;;;;;;;1.40;1.30;;;16.60;84.20;;;;;;10365966;28;20206;-77
2022/05/26 04:52:25;;;;;;;2.10;2.00;;;16.60;84.70;;;;;;10368122;28;20214;-76
2022/05/26 04:57:27;;;;;;;2.17;2.07;;;16.70;84.10;;;;;;10365680;28;20224;-76
2022/05/26 05:02:30;;;;;;;1.60;1.47;;;16.80;84.50;;;;;;10368352;28;20239;-76
2022/05/26 05:07:34;;;;;;;2.70;1.63;;;16.90;84.30;;;;;;10368219;28;20669;-76
2022/05/26 05:12:36;;;;;;;2.83;1.83;;;17.00;84.20;;;;;;10358492;28;20227;-77
2022/05/26 05:17:39;;;;;;;4.40;1.50;;;17.00;85.50;;;;;;10364764;28;20309;-77
2022/05/26 05:22:48;;;;;;;1.40;1.40;;;17.00;83.80;;;;;;10365368;28;20226;-77
2022/05/26 05:27:54;;;;;;;2.83;1.40;;;17.10;82.40;;;;;;10367072;28;20195;-76
2022/05/26 05:33:02;;;;;;;1.80;1.70;;;17.20;80.80;;;;;;10366626;28;20218;-77
2022/05/26 05:38:06;;;;;;;1.90;1.53;;;17.20;80.60;;;;;;10363140;28;20192;-77
2022/05/26 05:43:08;;;;;;;1.23;1.23;;;17.20;81.50;;;;;;10362330;28;20686;-77
2022/05/26 05:48:10;;;;;;;1.47;1.40;;;17.20;80.90;;;;;;10362943;28;20197;-77
2022/05/26 05:53:15;;;;;;;1.57;1.47;;;17.30;82.20;;;;;;10365393;28;20227;-76
2022/05/26 05:58:17;;;;;;;1.60;1.50;;;17.30;81.20;;;;;;10359901;28;20199;-77
2022/05/26 06:03:19;;;;;;;3.27;1.97;;;17.50;80.20;;;;;;10361635;28;20227;-76
2022/05/26 06:08:22;;;;;;;1.57;1.47;;;17.70;82.70;;;;;;10362003;28;20294;-76
2022/05/26 06:13:25;;;;;;;3.80;1.90;;;18.10;78.70;;;;;;10365601;28;20297;-76
2022/05/26 06:18:27;;;;;;;1.33;1.33;;;18.20;79.70;;;;;;10365741;28;20252;-76
2022/05/26 06:23:30;;;;;;;3.33;1.77;;;18.50;80.00;;;;;;10368690;28;20218;-76
2022/05/26 06:39:28;;;;;;;1.50;1.40;;;18.90;77.90;;;;;;10304887;28;20199;-75
2022/05/26 06:44:30;;;;;;;1.60;1.50;;;19.00;78.20;;;;;;10352060;28;20243;-75
2022/05/26 06:49:33;;;;;;;1.53;1.43;;;19.20;78.20;;;;;;10367501;28;20213;-77
2022/05/26 06:54:39;;;;;;;1.73;1.63;;;19.30;78.20;;;;;;10370659;28;20782;-76
2022/05/26 06:59:41;;;;;;;1.63;1.53;;;19.40;76.00;;;;;;10370137;28;20674;-75
2022/05/26 07:04:44;;;;;;;1.70;1.60;;;19.50;77.30;;;;;;10370087;28;20733;-75
2022/05/26 07:09:47;;;;;;;2.13;1.70;;;19.60;77.70;;;;;;10365371;28;20231;-76
2022/05/26 07:14:50;;;;;;;1.50;1.40;;;19.80;78.50;;;;;;10335179;28;20230;-77
2022/05/26 07:19:52;;;;;;;2.00;1.57;;;20.10;76.50;;;;;;10357580;28;20234;-76
2022/05/26 07:24:56;;;;;;;1.70;1.60;;;20.40;75.50;;;;;;10369911;28;20222;-76
2022/05/26 07:29:59;;;;;;;1.47;1.37;;;20.80;75.90;;;;;;10370207;28;20229;-76
2022/05/26 07:35:01;;;;;;;1.43;1.43;;;21.00;75.10;;;;;;10356783;28;20222;-76
2022/05/26 07:45:25;;;;;;;4.00;1.70;;;21.50;74.30;;;;;;10367900;28;20194;-76
2022/05/26 07:50:27;;;;;;;2.10;1.60;;;21.70;72.00;;;;;;10368630;28;20667;-77
2022/05/26 07:55:33;;;;;;;2.10;1.90;;;21.70;72.60;;;;;;10370295;28;20554;-77
2022/05/26 08:00:36;;;;;;;1.60;1.50;;;22.00;71.70;;;;;;10373686;28;20285;-77
2022/05/26 08:05:40;;;;;;;1.60;1.60;;;22.20;71.00;;;;;;10372985;28;20203;-77
2022/05/26 08:10:44;;;;;;;2.23;1.50;;;22.50;70.30;;;;;;10377377;28;20242;-77
2022/05/26 08:15:46;;;;;;;1.93;1.70;;;22.70;70.00;;;;;;10354648;28;20758;-77
2022/05/26 08:20:48;;;;;;;1.70;1.60;;;22.80;70.80;;;;;;10353144;28;20297;-77
2022/05/26 08:25:52;;;;;;;1.70;1.60;;;22.90;68.40;;;;;;10363156;28;20199;-77
2022/05/26 08:30:54;;;;;;;2.03;1.93;;;22.70;69.30;;;;;;10369151;28;20214;-77
2022/05/26 08:36:04;;;;;;;1.70;1.70;;;22.40;71.10;;;;;;10370534;28;20276;-77
2022/05/26 08:41:11;;;;;;;4.33;1.73;;;22.20;69.70;;;;;;10372466;28;20598;-78
2022/05/26 08:46:17;;;;;;;2.53;1.80;;;22.20;70.20;;;;;;10372833;28;20194;-78
2022/05/26 08:51:26;;;;;;;1.53;1.43;;;22.40;70.00;;;;;;10368905;28;20234;-77
2022/05/26 08:56:30;;;;;;;1.80;1.70;;;22.60;70.20;;;;;;10362962;28;20231;-78
2022/05/26 09:01:33;;;;;;;1.40;1.30;;;22.60;69.80;;;;;;10371545;28;20292;-78
2022/05/26 09:17:24;;;;;;;1.47;1.40;;;22.90;69.10;;;;;;10350659;28;20225;-78
2022/05/26 09:22:29;;;;;;;2.10;1.60;;;23.20;70.50;;;;;;10368003;28;20229;-78
2022/05/26 09:27:36;;;;;;;1.60;1.50;;;23.50;68.70;;;;;;10371360;28;20195;-78
2022/05/26 09:32:38;;;;;;;1.33;1.20;;;23.70;68.50;;;;;;10369988;28;20234;-77
2022/05/26 09:37:42;;;;;;;1.30;1.30;;;23.70;69.00;;;;;;10370340;28;20219;-77
2022/05/26 09:42:47;;;;;;;1.60;1.47;;;23.50;68.60;;;;;;10364642;28;20223;-78
2022/05/26 09:47:54;;;;;;;1.40;1.30;;;23.10;68.00;;;;;;10357539;28;20263;-78
2022/05/26 09:52:56;;;;;;;3.67;2.20;;;22.70;68.70;;;;;;10355101;28;20214;-78
2022/05/26 09:58:07;;;;;;;2.50;2.07;;;22.20;69.30;;;;;;10341457;28;20224;-78
2022/05/26 10:03:19;;;;;;;3.23;1.70;;;21.80;70.10;;;;;;10361497;28;20679;-77
2022/05/26 10:08:31;;;;;;;2.10;1.50;;;21.80;70.40;;;;;;10362566;28;20617;-77
2022/05/26 10:14:01;;;;;;;1.90;1.80;;;21.70;73.00;;;;;;10347677;28;20264;-78
2022/05/26 10:19:23;;;;;;;1.90;1.80;;;21.70;73.30;;;;;;10361144;28;20738;-77
2022/05/26 10:24:39;;;;;;;1.57;1.57;;;21.60;72.30;;;;;;10360297;28;20226;-79
2022/05/26 10:30:05;;;;;;;2.17;1.90;;;21.70;73.20;;;;;;10379928;28;20620;-78
2022/05/26 10:35:19;;;;;;;3.10;1.50;;;21.80;71.80;;;;;;10362380;28;20234;-78
2022/05/26 10:40:31;;;;;;;1.67;1.57;;;22.00;71.80;;;;;;10361961;28;20202;-77
2022/05/26 10:45:39;;;;;;;4.10;1.67;;;22.10;73.70;;;;;;10359553;28;20675;-79
2022/05/26 10:50:46;;;;;;;2.00;1.80;;;22.20;73.40;;;;;;10352159;28;20234;-77
2022/05/26 10:55:55;;;;;;;1.70;1.60;;;22.20;71.80;;;;;;10365445;28;20222;-78
2022/05/26 11:01:04;;;;;;;1.53;1.53;;;22.00;70.60;;;;;;10353804;28;20235;-78
2022/05/26 11:06:10;;;;;;;1.87;1.77;;;21.70;72.10;;;;;;10351515;28;20205;-79
2022/05/26 11:11:17;;;;;;;1.67;1.50;;;21.50;71.80;;;;;;10363527;28;20284;-77
2022/05/26 11:21:49;;;;;;;2.27;1.70;;;21.20;73.10;;;;;;10357616;28;20301;-78
2022/05/26 11:26:56;;;;;;;1.40;1.40;;;21.30;74.40;;;;;;10356580;28;21032;-77
2022/05/26 11:37:41;;;;;;;1.97;1.87;;;21.80;71.40;;;;;;10350436;28;20249;-78
2022/05/26 11:42:53;;;;;;;2.00;1.90;;;21.80;70.20;;;;;;10368552;28;20268;-78
2022/05/26 11:47:58;;;;;;;4.03;1.90;;;21.70;71.30;;;;;;10358430;28;20194;-77
2022/05/26 11:53:13;;;;;;;1.93;1.83;;;21.50;72.90;;;;;;10357079;28;20230;-77
2022/05/26 11:58:35;;;;;;;0.90;0.80;;;21.70;73.90;;;;;;10353441;28;20236;-78
2022/05/26 12:04:00;;;;;;;1.80;1.70;;;22.00;74.30;;;;;;10391882;22;20316;-79
2022/05/26 12:09:04;;;;;;;1.70;1.60;;;22.20;72.30;;;;;;10415722;28;20198;-80
2022/05/26 12:14:07;;;;;;;1.87;1.60;;;22.30;72.60;;;;;;10405832;28;20215;-80
2022/05/26 12:19:11;;;;;;;2.00;1.83;;;22.10;71.30;;;;;;10416487;28;20206;-81
2022/05/26 12:24:59;;;;;;;1.60;1.50;;;21.80;71.70;;;;;;10404255;28;20284;-78
2022/05/26 12:30:05;;;;;;;2.10;1.70;;;21.60;72.30;;;;;;10403578;28;20202;-79
2022/05/26 12:35:23;;;;;;;1.60;1.50;;;21.50;73.10;;;;;;10411987;28;20633;-80
2022/05/26 12:40:47;;;;;;;2.23;2.03;;;21.40;74.40;;;;;;10409962;28;20229;-79
2022/05/26 12:45:53;;;;;;;2.33;1.87;;;21.30;73.80;;;;;;10414566;28;20241;-80
2022/05/26 12:51:04;;;;;;;2.40;2.20;;;21.20;75.20;;;;;;10414557;28;20205;-81
2022/05/26 12:56:12;;;;;;;1.93;1.83;;;21.30;76.80;;;;;;10411150;28;20649;-80
2022/05/26 13:01:15;;;;;;;2.40;1.50;;;21.70;75.70;;;;;;10404771;28;20676;-80
2022/05/26 13:06:29;;;;;;;1.97;1.87;;;22.00;75.60;;;;;;10422110;28;20245;-80
2022/05/26 13:11:35;;;;;;;2.20;2.07;;;22.20;75.20;;;;;;10423491;28;20229;-80
2022/05/26 13:16:39;;;;;;;3.70;2.03;;;22.50;74.40;;;;;;10421377;28;20245;-80
2022/05/26 13:21:45;;;;;;;1.93;1.73;;;22.60;73.30;;;;;;10423242;28;20255;-81
2022/05/26 13:26:52;;;;;;;2.40;1.90;;;22.50;74.20;;;;;;10415300;28;20202;-81
2022/05/26 13:37:23;;;;;;;2.30;2.00;;;22.10;75.30;;;;;;10396310;28;20281;-80
2022/05/26 13:42:25;;;;;;;2.60;2.00;;;22.00;75.50;;;;;;10410400;28;20249;-81
2022/05/26 13:47:27;;;;;;;2.73;2.00;;;21.80;76.40;;;;;;10407333;28;20738;-80
2022/05/26 13:52:34;;;;;;;2.27;2.17;;;21.80;76.60;;;;;;10381827;28;20226;-79
2022/05/26 13:57:41;;;;;;;2.60;2.33;;;21.80;78.10;;;;;;10403380;28;20267;-79
2022/05/26 14:02:52;;;;;;;2.70;2.30;;;22.00;77.50;;;;;;10407719;28;20599;-80
2022/05/26 14:08:10;;;;;;;4.27;2.00;;;22.00;77.20;;;;;;10388579;28;20245;-81
2022/05/26 14:13:32;;;;;;;2.93;1.83;;;22.10;77.10;;;;;;10394826;28;20236;-81
2022/05/26 14:18:37;;;;;;;4.50;1.83;;;22.10;75.90;;;;;;10397447;28;20769;-79
2022/05/26 14:23:48;;;;;;;2.10;2.00;;;22.20;76.40;;;;;;10387061;28;20759;-81
2022/05/26 14:28:50;;;;;;;1.90;1.80;;;22.30;75.40;;;;;;10392605;28;20217;-79
2022/05/26 14:33:58;;;;;;;2.20;2.10;;;22.50;75.20;;;;;;10395813;28;20222;-80
2022/05/26 14:39:03;;;;;;;1.40;1.27;;;22.60;73.70;;;;;;10399624;28;20291;-80
2022/05/26 14:44:07;;;;;;;1.77;1.67;;;22.60;74.10;;;;;;10411322;28;20253;-78
2022/05/26 14:49:09;;;;;;;2.00;1.80;;;22.60;72.50;;;;;;10416248;28;20747;-81
2022/05/26 14:59:37;;;;;;;1.43;1.43;;;22.30;74.10;;;;;;10415681;28;20312;-80
2022/05/26 15:04:41;;;;;;;1.70;1.60;;;22.00;73.80;;;;;;10414163;28;20651;-81
2022/05/26 15:09:47;;;;;;;3.27;1.73;;;21.80;74.80;;;;;;10411427;28;20240;-80
2022/05/26 15:14:50;;;;;;;3.30;2.13;;;21.70;72.80;;;;;;10395715;28;20222;-79
2022/05/26 15:19:57;;;;;;;1.70;1.50;;;21.50;73.60;;;;;;10396092;28;20206;-79
2022/05/26 15:25:03;;;;;;;2.17;2.07;;;21.50;73.30;;;;;;10403582;28;20593;-80
2022/05/26 15:30:08;;;;;;;2.47;1.70;;;21.50;74.80;;;;;;10406155;28;20202;-79
2022/05/26 15:35:12;;;;;;;1.90;1.80;;;21.60;73.60;;;;;;10407911;28;20710;-81
2022/05/26 15:40:20;;;;;;;3.00;1.67;;;21.70;73.60;;;;;;10411538;28;20221;-80
2022/05/26 15:45:22;;;;;;;2.17;2.07;;;21.80;72.00;;;;;;10402478;28;20268;-79
2022/05/26 15:50:28;;;;;;;2.63;2.13;;;21.90;72.70;;;;;;10413609;28;20210;-78
2022/05/26 15:55:32;;;;;;;1.70;1.60;;;21.90;72.50;;;;;;10403856;28;20261;-80
2022/05/26 16:00:36;;;;;;;4.13;1.80;;;21.80;74.80;;;;;;10406589;28;20272;-80
2022/05/26 16:05:40;;;;;;;2.50;2.30;;;21.80;75.60;;;;;;10399222;28;20248;-80
2022/05/26 16:10:46;;;;;;;3.20;1.80;;;21.90;74.90;;;;;;10409786;28;20229;-79
2022/05/26 16:15:50;;;;;;;2.13;2.03;;;21.90;75.10;;;;;;10407264;28;20272;-79
2022/05/26 16:20:53;;;;;;;1.63;1.50;;;22.00;75.40;;;;;;10409929;28;20669;-80
2022/05/26 16:25:58;;;;;;;2.20;2.10;;;22.00;75.90;;;;;;10383238;28;20620;-80
2022/05/26 16:31:01;;;;;;;2.50;1.97;;;21.90;75.60;;;;;;10359215;28;20298;-80
2022/05/26 16:41:28;;;;;;;2.10;2.00;;;21.60;77.10;;;;;;10391071;28;20271;-81
2022/05/26 16:46:32;;;;;;;4.30;2.07;;;21.50;75.90;;;;;;10396414;28;20218;-81
2022/05/26 16:51:39;;;;;;;1.93;1.67;;;21.40;75.90;;;;;;10396037;28;20271;-81
2022/05/26 16:56:43;;;;;;;4.03;1.50;;;21.30;78.70;;;;;;10433083;28;20217;-81
2022/05/26 17:01:45;;;;;;;3.10;2.00;;;21.30;76.20;;;;;;10420348;28;20237;-82
2022/05/26 17:06:47;;;;;;;1.87;1.77;;;21.40;76.70;;;;;;10403254;28;20666;-82
2022/05/26 17:11:51;;;;;;;2.13;1.93;;;21.30;75.90;;;;;;10414836;28;20765;-82
2022/05/26 17:22:15;;;;;;;2.27;2.07;;;21.20;78.40;;;;;;10403665;28;20213;-83
2022/05/26 17:27:23;;;;;;;2.30;1.60;;;21.20;79.40;;;;;;10417556;28;20676;-83
2022/05/26 17:32:25;;;;;;;2.50;2.40;;;21.00;78.90;;;;;;10412481;28;20639;-82
2022/05/26 17:37:27;;;;;;;2.00;1.90;;;21.00;75.90;;;;;;10392383;28;20233;-81
2022/05/26 17:42:34;;;;;;;3.40;2.20;;;20.90;75.40;;;;;;10400537;28;20229;-82
2022/05/26 17:47:36;;;;;;;1.80;1.70;;;20.80;75.70;;;;;;10403630;28;20197;-81
2022/05/26 17:52:39;;;;;;;2.27;1.60;;;20.80;77.60;;;;;;10409175;28;20225;-81
2022/05/26 17:57:43;;;;;;;2.20;2.07;;;20.70;76.40;;;;;;10408421;28;20214;-82
2022/05/26 18:02:45;;;;;;;1.60;1.43;;;20.70;76.10;;;;;;10432283;22;20241;-80
2022/05/26 18:07:47;;;;;;;4.60;2.20;;;20.70;77.40;;;;;;10351970;28;20199;-79
2022/05/26 18:12:51;;;;;;;2.07;1.97;;;20.60;76.20;;;;;;10376777;28;20261;-79
2022/05/26 18:17:54;;;;;;;1.90;1.80;;;20.60;78.60;;;;;;10381796;28;20218;-79
2022/05/26 18:22:58;;;;;;;2.67;2.37;;;20.50;78.20;;;;;;10384393;28;20599;-79
2022/05/26 18:28:02;;;;;;;2.47;2.37;;;20.50;81.10;;;;;;10378088;28;20298;-79
2022/05/26 18:33:06;;;;;;;2.43;2.23;;;20.40;80.10;;;;;;10359675;28;20219;-79
2022/05/26 18:38:09;;;;;;;1.60;1.50;;;20.40;77.40;;;;;;10377313;28;20661;-79
2022/05/26 18:43:13;;;;;;;3.57;3.27;;;20.30;80.60;;;;;;10377854;28;20218;-79
2022/05/26 18:48:17;;;;;;;2.77;2.57;;;20.30;81.90;;;;;;10375599;28;20198;-79
2022/05/26 18:53:19;;;;;;;2.60;2.40;;;20.30;82.40;;;;;;10377112;28;20278;-79
2022/05/26 18:58:23;;;;;;;2.70;2.50;;;20.20;84.20;;;;;;10376775;28;20309;-79
2022/05/26 19:03:27;;;;;;;2.27;2.17;;;20.20;81.80;;;;;;10376593;28;20694;-78
2022/05/26 19:08:31;;;;;;;2.40;2.20;;;20.20;80.60;;;;;;10376225;28;20238;-79
2022/05/26 19:13:39;;;;;;;2.30;2.20;;;20.10;82.40;;;;;;10375861;28;20238;-79
2022/05/26 19:18:42;;;;;;;2.70;2.10;;;20.00;82.70;;;;;;10376120;28;20690;-79
2022/05/26 19:23:44;;;;;;;3.07;2.87;;;19.90;82.80;;;;;;10374335;28;20314;-79
2022/05/26 19:28:51;;;;;;;2.73;2.20;;;19.80;83.30;;;;;;10374662;28;20222;-79
2022/05/26 19:33:54;;;;;;;3.07;2.87;;;19.60;84.40;;;;;;10374454;28;20218;-79
2022/05/26 19:38:56;;;;;;;2.77;2.67;;;19.50;82.90;;;;;;10356611;28;20279;-79
2022/05/26 19:43:59;;;;;;;2.70;2.50;;;19.50;84.90;;;;;;10374700;28;20284;-79
2022/05/26 19:49:02;;;;;;;3.13;2.70;;;19.50;84.00;;;;;;10369024;28;20681;-79
2022/05/26 19:54:05;;;;;;;2.40;2.20;;;19.40;84.20;;;;;;10372546;28;20421;-79
2022/05/26 19:59:12;;;;;;;4.53;4.13;;;19.30;84.70;;;;;;10373342;28;20668;-79
2022/05/26 20:04:15;;;;;;;3.87;3.57;;;19.10;85.20;;;;;;10374095;28;20305;-79
2022/05/26 20:09:18;;;;;;;3.17;2.93;;;18.80;85.10;;;;;;10374134;28;20276;-79
2022/05/26 20:14:22;;;;;;;5.73;3.47;;;18.60;85.50;;;;;;10356361;28;20275;-79
2022/05/26 20:19:25;;;;;;;4.67;4.37;;;18.50;86.80;;;;;;10373375;28;20759;-79
2022/05/26 20:24:28;;;;;;;3.10;2.90;;;18.40;86.90;;;;;;10374266;28;20265;-79
2022/05/26 20:29:33;;;;;;;2.90;2.70;;;18.20;86.70;;;;;;10374761;28;20203;-79
2022/05/26 20:34:35;;;;;;;2.23;2.13;;;18.10;86.50;;;;;;10350340;28;20690;-79
2022/05/26 20:39:41;;;;;;;2.90;2.70;;;18.00;87.00;;;;;;10375806;28;20313;-79
2022/05/26 20:44:45;;;;;;;4.07;3.77;;;18.00;87.50;;;;;;10375167;28;20609;-79
2022/05/26 20:49:51;;;;;;;3.00;2.80;;;17.90;87.80;;;;;;10356870;28;20273;-79
2022/05/26 20:54:53;;;;;;;4.27;3.03;;;17.80;86.70;;;;;;10374214;28;20218;-79
2022/05/26 20:59:57;;;;;;;2.40;2.20;;;17.80;86.90;;;;;;10373076;28;20214;-79
2022/05/26 21:04:59;;;;;;;2.40;2.30;;;17.70;87.10;;;;;;10372502;28;20421;-79
2022/05/26 21:10:01;;;;;;;2.43;2.30;;;17.70;87.70;;;;;;10355776;28;20206;-79
2022/05/26 21:15:07;;;;;;;2.50;2.30;;;17.70;87.50;;;;;;10359159;28;20284;-79
2022/05/26 21:20:11;;;;;;;2.60;2.40;;;17.70;87.70;;;;;;10353143;28;20317;-79
2022/05/26 21:25:13;;;;;;;2.90;2.70;;;17.70;88.30;;;;;;10358076;28;20289;-80
2022/05/26 21:30:19;;;;;;;2.40;2.30;;;17.60;88.00;;;;;;10364416;28;20586;-80
2022/05/26 21:35:21;;;;;;;2.37;2.27;;;17.50;88.80;;;;;;10360454;28;20250;-79
2022/05/26 21:40:23;;;;;;;2.20;2.00;;;17.50;89.40;;;;;;10348269;28;20234;-79
2022/05/26 21:45:28;;;;;;;3.43;2.17;;;17.50;89.00;;;;;;10365291;28;20249;-79
2022/05/26 21:50:30;;;;;;;3.10;2.37;;;17.40;88.40;;;;;;10381812;28;20205;-79
2022/05/26 21:55:32;;;;;;;2.53;2.40;;;17.40;88.70;;;;;;10377366;28;20257;-79
2022/05/26 22:00:55;;;;;;;1.97;1.80;;;17.40;90.10;;;;;;10373316;28;20612;-79
2022/05/26 22:11:18;;;;;;;2.43;2.30;;;17.40;90.10;;;;;;10368008;28;20198;-78
2022/05/26 22:16:21;;;;;;;4.30;2.40;;;17.50;90.40;;;;;;10368825;28;20245;-79
2022/05/26 22:21:23;;;;;;;2.53;2.00;;;17.50;90.60;;;;;;10364302;28;20206;-79
2022/05/26 22:26:26;;;;;;;2.57;2.37;;;17.50;89.60;;;;;;10366980;28;20579;-79
2022/05/26 22:31:29;;;;;;;3.00;2.40;;;17.50;89.10;;;;;;10389575;28;20269;-78
2022/05/26 22:36:32;;;;;;;2.67;2.47;;;17.40;89.60;;;;;;10375076;28;20230;-78
2022/05/26 22:41:34;;;;;;;3.53;2.77;;;17.40;89.40;;;;;;10385827;28;20215;-78
2022/05/26 22:46:38;;;;;;;2.50;2.40;;;17.40;89.50;;;;;;10364122;28;20318;-79
2022/05/26 22:51:41;;;;;;;2.20;2.10;;;17.40;90.60;;;;;;10366054;28;20242;-78
2022/05/26 22:56:44;;;;;;;3.43;2.63;;;17.50;90.70;;;;;;10363940;28;20297;-77
2022/05/26 23:01:47;;;;;;;2.60;2.50;;;17.50;90.40;;;;;;10364871;28;20675;-78
2022/05/26 23:06:49;;;;;;;2.67;2.50;;;17.60;90.20;;;;;;10367257;28;20237;-78
2022/05/26 23:11:51;;;;;;;2.50;2.37;;;17.60;90.60;;;;;;10366386;28;20323;-78
2022/05/26 23:16:55;;;;;;;3.00;2.80;;;17.60;90.80;;;;;;10367468;28;20301;-78
2022/05/26 23:21:57;;;;;;;2.97;2.77;;;17.60;90.30;;;;;;10367324;28;20352;-79
2022/05/26 23:27:00;;;;;;;3.10;2.90;;;17.70;90.60;;;;;;10366453;28;20616;-79
2022/05/26 23:32:04;;;;;;;2.70;2.50;;;17.80;91.10;;;;;;10369242;28;20214;-79
2022/05/26 23:37:06;;;;;;;2.70;2.50;;;17.80;90.10;;;;;;10369221;28;20231;-79
2022/05/26 23:47:41;;;;;;;2.40;2.30;;;17.90;90.50;;;;;;10300034;28;20340;-79
2022/05/26 23:52:43;;;;;;;2.80;2.10;;;17.90;90.80;;;;;;10367576;28;20706;-79
2022/05/26 23:57:48;;;;;;;2.37;2.13;;;17.90;90.30;;;;;;10365230;28;20222;-79
